Time;durP1;ratioP1;P1;durP2;ratioP2;P2;SDS_P1;SDS_P2;PMS_P1;PMS_P2;Temp;Humidity;BMP_temperature;BMP_pressure;BME280_temperature;BME280_humidity;BME280_pressure;Samples;Min_cycle;Max_cycle;Signal;HPM_P1;HPM_P2
2023/09/25 00:01:00;;;;;;;1.90;0.93;;;12.90;99.90;;;;;;5076909;28;20031;-83
2023/09/25 00:03:25;;;;;;;2.47;1.00;;;12.90;99.90;;;;;;5076191;28;20047;-84
2023/09/25 00:05:51;;;;;;;1.95;1.20;;;12.90;99.90;;;;;;5075299;28;20024;-80
2023/09/25 00:08:17;;;;;;;3.67;1.05;;;12.70;99.90;;;;;;5074916;28;20024;-82
2023/09/25 00:10:43;;;;;;;2.20;1.10;;;12.80;99.90;;;;;;5073123;28;20098;-80
2023/09/25 00:13:09;;;;;;;1.73;0.93;;;12.70;99.90;;;;;;5065520;28;20090;-80
2023/09/25 00:15:34;;;;;;;3.22;0.90;;;12.70;99.90;;;;;;5074853;28;20025;-81
2023/09/25 00:18:00;;;;;;;3.05;0.90;;;12.60;99.90;;;;;;5075257;28;20025;-81
2023/09/25 00:20:26;;;;;;;3.58;0.82;;;12.60;99.90;;;;;;5073833;28;20056;-82
2023/09/25 00:22:52;;;;;;;2.33;1.30;;;12.50;99.90;;;;;;5075183;28;20021;-81
2023/09/25 00:25:22;;;;;;;3.25;1.10;;;12.40;99.90;;;;;;5075572;28;20031;-82
2023/09/25 00:27:48;;;;;;;1.80;1.05;;;12.50;99.90;;;;;;5062764;28;20025;-82
2023/09/25 00:30:14;;;;;;;1.95;1.15;;;12.40;99.90;;;;;;5054651;28;20029;-81
2023/09/25 00:32:40;;;;;;;3.40;1.10;;;12.30;99.90;;;;;;5066419;28;20031;-82
2023/09/25 00:35:10;;;;;;;2.35;1.13;;;12.30;99.90;;;;;;5076441;28;20389;-81
2023/09/25 00:37:37;;;;;;;3.38;1.10;;;12.30;99.90;;;;;;5064615;28;20087;-82
2023/09/25 00:40:24;;;;;;;1.98;1.10;;;12.30;99.90;;;;;;5055005;28;20033;-82
2023/09/25 00:42:53;;;;;;;2.13;1.30;;;12.30;99.90;;;;;;5071888;28;20051;-82
2023/09/25 00:45:20;;;;;;;1.95;1.30;;;12.20;99.90;;;;;;5056019;28;20047;-81
2023/09/25 00:47:46;;;;;;;2.60;1.00;;;12.10;99.90;;;;;;5056118;28;20029;-81
2023/09/25 00:50:12;;;;;;;2.53;1.30;;;12.10;99.90;;;;;;5070845;28;20466;-80
2023/09/25 00:52:45;;;;;;;4.22;1.33;;;12.00;99.90;;;;;;5074335;28;20032;-81
2023/09/25 00:55:14;;;;;;;3.58;1.30;;;12.00;99.90;;;;;;5074847;28;20021;-80
2023/09/25 00:57:40;;;;;;;2.85;1.20;;;11.90;99.90;;;;;;5075297;28;20021;-81
2023/09/25 01:00:17;;;;;;;4.18;1.30;;;11.90;99.90;;;;;;5075470;28;20035;-80
2023/09/25 01:02:43;;;;;;;2.80;1.10;;;12.00;99.90;;;;;;5075289;28;20051;-80
2023/09/25 01:05:10;;;;;;;3.78;1.58;;;12.00;99.90;;;;;;5074956;28;20473;-80
2023/09/25 01:07:40;;;;;;;2.78;1.13;;;12.00;99.90;;;;;;5075724;28;20099;-80
2023/09/25 01:10:17;;;;;;;3.45;1.35;;;12.00;99.90;;;;;;5074631;28;20447;-80
2023/09/25 01:12:44;;;;;;;2.15;1.17;;;12.00;99.90;;;;;;5074597;28;20060;-80
2023/09/25 01:15:10;;;;;;;3.17;1.08;;;12.10;99.90;;;;;;5074662;28;20025;-79
2023/09/25 01:17:36;;;;;;;2.15;1.20;;;12.00;99.90;;;;;;5074302;28;20111;-80
2023/09/25 01:20:15;;;;;;;2.33;1.13;;;12.00;99.90;;;;;;5074136;28;20141;-81
2023/09/25 01:22:50;;;;;;;2.95;1.42;;;11.90;99.90;;;;;;5075083;28;20059;-81
2023/09/25 01:25:17;;;;;;;2.15;1.30;;;11.90;99.90;;;;;;5074290;28;20028;-80
2023/09/25 01:27:44;;;;;;;4.70;1.10;;;11.80;99.90;;;;;;5074796;28;20024;-81
2023/09/25 01:30:11;;;;;;;3.22;1.15;;;11.80;99.90;;;;;;5074076;28;20033;-80
2023/09/25 01:32:38;;;;;;;3.38;1.40;;;11.70;99.90;;;;;;5075266;28;20024;-80
2023/09/25 01:35:09;;;;;;;2.92;1.00;;;11.60;99.90;;;;;;5075338;28;20021;-80
2023/09/25 01:37:35;;;;;;;2.83;1.38;;;11.50;99.90;;;;;;5073511;28;20025;-80
2023/09/25 01:40:01;;;;;;;2.75;1.00;;;11.50;99.90;;;;;;5074215;28;20040;-80
2023/09/25 01:42:27;;;;;;;2.08;1.00;;;11.50;99.90;;;;;;5073435;28;20028;-80
2023/09/25 01:44:52;;;;;;;4.03;1.10;;;11.40;99.90;;;;;;5074070;28;20025;-80
2023/09/25 01:47:18;;;;;;;1.60;0.90;;;11.40;99.90;;;;;;5073466;28;20028;-80
2023/09/25 01:49:44;;;;;;;2.05;1.17;;;11.50;99.90;;;;;;5074051;28;20037;-80
2023/09/25 01:52:12;;;;;;;1.95;1.20;;;11.50;99.90;;;;;;5074233;28;20032;-80
2023/09/25 01:54:37;;;;;;;2.40;1.23;;;11.60;99.90;;;;;;5074754;28;20446;-80
2023/09/25 01:57:04;;;;;;;2.85;1.20;;;11.60;99.90;;;;;;5073904;28;20035;-80
2023/09/25 01:59:30;;;;;;;2.45;0.93;;;11.50;99.90;;;;;;5073284;28;20032;-80
2023/09/25 02:01:56;;;;;;;2.75;1.20;;;11.60;99.90;;;;;;5073809;28;20515;-80
2023/09/25 02:04:22;;;;;;;1.67;1.02;;;11.60;99.90;;;;;;5073647;28;20031;-80
2023/09/25 02:06:48;;;;;;;2.08;1.00;;;11.60;99.90;;;;;;5075172;28;20099;-80
2023/09/25 02:09:14;;;;;;;6.35;1.63;;;11.60;99.90;;;;;;5073632;28;20054;-79
2023/09/25 02:11:39;;;;;;;2.85;1.20;;;11.60;99.90;;;;;;5073250;28;20029;-80
2023/09/25 02:14:05;;;;;;;2.63;1.45;;;11.60;99.90;;;;;;5073929;28;20479;-79
2023/09/25 02:16:31;;;;;;;2.67;1.30;;;11.50;99.90;;;;;;5074103;28;20462;-80
2023/09/25 02:18:57;;;;;;;4.75;1.60;;;11.50;99.90;;;;;;5074076;28;20059;-80
2023/09/25 02:21:23;;;;;;;1.70;0.98;;;11.60;99.90;;;;;;5072999;28;20028;-79
2023/09/25 02:23:48;;;;;;;2.53;1.30;;;11.50;99.90;;;;;;5073525;28;20078;-80
2023/09/25 02:26:14;;;;;;;3.40;1.10;;;11.50;99.90;;;;;;5073270;28;20416;-79
2023/09/25 02:28:39;;;;;;;3.15;1.40;;;11.50;99.90;;;;;;5073048;28;20028;-80
2023/09/25 02:31:05;;;;;;;3.38;1.10;;;11.50;99.90;;;;;;5073087;28;20060;-80
2023/09/25 02:33:30;;;;;;;3.05;1.13;;;11.50;99.90;;;;;;5072854;28;20024;-80
2023/09/25 02:36:12;;;;;;;3.60;1.40;;;11.50;99.90;;;;;;5073926;28;20440;-80
2023/09/25 02:38:37;;;;;;;4.47;1.10;;;11.40;99.90;;;;;;5073467;28;20047;-80
2023/09/25 02:41:03;;;;;;;3.05;1.30;;;11.40;99.90;;;;;;5072573;28;20641;-80
2023/09/25 02:43:29;;;;;;;2.72;1.10;;;11.40;99.90;;;;;;5071997;28;20029;-80
2023/09/25 02:45:55;;;;;;;3.63;1.67;;;11.30;99.90;;;;;;5073145;28;20082;-80
2023/09/25 02:48:21;;;;;;;2.03;1.30;;;11.30;99.90;;;;;;5072697;28;20051;-80
2023/09/25 02:50:50;;;;;;;4.55;1.30;;;11.40;99.90;;;;;;5073068;28;20024;-80
2023/09/25 02:53:15;;;;;;;1.90;1.02;;;11.40;99.90;;;;;;5073116;28;20035;-80
2023/09/25 02:55:42;;;;;;;2.97;1.38;;;11.40;99.90;;;;;;5072566;28;20032;-80
2023/09/25 02:58:07;;;;;;;2.20;1.20;;;11.40;99.90;;;;;;5072940;28;20358;-80
2023/09/25 03:00:33;;;;;;;5.10;1.35;;;11.40;99.90;;;;;;5072354;28;20082;-80
2023/09/25 03:02:58;;;;;;;4.10;1.58;;;11.30;99.90;;;;;;5073902;28;20025;-81
2023/09/25 03:05:24;;;;;;;2.75;1.20;;;11.30;99.90;;;;;;5073285;28;20057;-79
2023/09/25 03:07:50;;;;;;;3.17;1.40;;;11.30;99.90;;;;;;5072774;28;20021;-80
2023/09/25 03:10:16;;;;;;;1.98;1.30;;;11.40;99.90;;;;;;5072776;28;20032;-80
2023/09/25 03:12:41;;;;;;;3.20;1.30;;;11.40;99.90;;;;;;5072130;28;20024;-81
2023/09/25 03:15:08;;;;;;;3.00;1.35;;;11.30;99.90;;;;;;5073691;28;20446;-80
2023/09/25 03:17:35;;;;;;;4.53;1.23;;;11.40;99.90;;;;;;5073128;28;20048;-80
2023/09/25 03:20:07;;;;;;;4.00;1.10;;;11.40;99.90;;;;;;5072038;28;20138;-80
2023/09/25 03:22:34;;;;;;;;;;;11.40;99.90;;;;;;5072477;28;20024;-80
2023/09/25 03:25:00;;;;;;;4.43;1.60;;;11.30;99.90;;;;;;5089479;28;19904;-80
2023/09/25 03:27:25;;;;;;;2.58;1.30;;;11.30;99.90;;;;;;5072235;28;20023;-80
2023/09/25 03:29:51;;;;;;;4.57;1.27;;;11.30;99.90;;;;;;5072586;28;20393;-79
2023/09/25 03:32:16;;;;;;;2.85;1.40;;;11.30;99.90;;;;;;5073182;28;20027;-80
2023/09/25 03:34:42;;;;;;;7.30;1.77;;;11.30;99.90;;;;;;5071967;28;20052;-80
2023/09/25 03:37:07;;;;;;;4.53;1.20;;;11.20;99.90;;;;;;5073680;28;20059;-79
2023/09/25 03:39:33;;;;;;;2.85;1.25;;;11.20;99.90;;;;;;5072010;28;20483;-80
2023/09/25 03:41:58;;;;;;;2.88;1.33;;;11.20;99.90;;;;;;5072374;28;20020;-80
2023/09/25 03:44:25;;;;;;;3.33;1.40;;;11.20;99.90;;;;;;5071823;28;20149;-80
2023/09/25 03:46:50;;;;;;;2.72;1.20;;;11.20;99.90;;;;;;5055843;28;20029;-80
2023/09/25 03:49:16;;;;;;;2.10;1.20;;;11.20;99.90;;;;;;5072154;28;20037;-80
2023/09/25 03:51:41;;;;;;;2.65;1.00;;;11.20;99.90;;;;;;5071540;28;20024;-79
2023/09/25 03:54:08;;;;;;;3.10;1.17;;;11.20;99.90;;;;;;5072167;28;20020;-80
2023/09/25 03:56:33;;;;;;;2.75;1.30;;;11.20;99.90;;;;;;5071560;28;20123;-80
2023/09/25 03:58:59;;;;;;;2.80;1.42;;;11.20;99.90;;;;;;5072028;28;20075;-80
2023/09/25 04:01:25;;;;;;;3.90;1.40;;;11.20;99.90;;;;;;5071547;28;20032;-80
2023/09/25 04:03:51;;;;;;;2.75;1.15;;;11.20;99.90;;;;;;5071859;28;20063;-80
2023/09/25 04:06:18;;;;;;;2.38;1.20;;;11.20;99.90;;;;;;5071857;28;20033;-81
2023/09/25 04:08:44;;;;;;;3.72;1.60;;;11.10;99.90;;;;;;5071591;28;20028;-80
2023/09/25 04:11:10;;;;;;;1.67;1.13;;;11.10;99.90;;;;;;5071623;28;20047;-80
2023/09/25 04:13:36;;;;;;;2.78;1.20;;;11.10;99.90;;;;;;5071100;28;20025;-80
2023/09/25 04:16:02;;;;;;;4.57;1.33;;;11.00;99.90;;;;;;5072041;28;20488;-80
2023/09/25 04:18:29;;;;;;;1.85;1.17;;;11.00;99.90;;;;;;5071403;28;20090;-81
2023/09/25 04:20:55;;;;;;;3.60;1.30;;;11.00;99.90;;;;;;5072125;28;20037;-80
2023/09/25 04:23:21;;;;;;;2.15;1.40;;;10.90;99.90;;;;;;5071677;28;20043;-80
2023/09/25 04:25:51;;;;;;;3.75;1.40;;;10.90;99.90;;;;;;5071784;28;20028;-80
2023/09/25 04:28:17;;;;;;;3.78;1.55;;;10.90;99.90;;;;;;5075049;28;20115;-81
2023/09/25 04:30:43;;;;;;;3.03;1.17;;;10.90;99.90;;;;;;5075981;28;20064;-81
2023/09/25 04:33:09;;;;;;;3.42;1.50;;;10.90;99.90;;;;;;5076689;28;20097;-80
2023/09/25 04:35:36;;;;;;;3.20;1.23;;;10.80;99.90;;;;;;5074826;28;20025;-80
2023/09/25 04:38:03;;;;;;;1.90;1.13;;;10.80;99.90;;;;;;5076440;28;20115;-80
2023/09/25 04:40:32;;;;;;;3.63;1.10;;;10.80;99.90;;;;;;5074917;28;20028;-81
2023/09/25 04:43:00;;;;;;;3.03;1.33;;;10.80;99.90;;;;;;5075423;28;20028;-81
2023/09/25 04:45:25;;;;;;;2.10;1.30;;;10.90;99.90;;;;;;5074813;28;20025;-81
2023/09/25 04:47:52;;;;;;;3.03;1.50;;;10.80;99.90;;;;;;5075143;28;20572;-80
2023/09/25 04:50:19;;;;;;;2.55;1.20;;;10.80;99.90;;;;;;5075031;28;20464;-80
2023/09/25 04:52:45;;;;;;;2.88;1.48;;;10.80;99.90;;;;;;5074632;28;20029;-80
2023/09/25 04:55:12;;;;;;;2.58;1.20;;;10.90;99.90;;;;;;5075256;28;20203;-80
2023/09/25 04:57:40;;;;;;;4.55;1.40;;;10.80;99.90;;;;;;5074370;28;20025;-80
2023/09/25 05:00:13;;;;;;;3.33;1.77;;;10.80;99.90;;;;;;5075112;28;20071;-80
2023/09/25 05:02:39;;;;;;;4.57;1.70;;;10.90;99.90;;;;;;5075452;28;20094;-80
2023/09/25 05:05:05;;;;;;;5.72;1.55;;;10.80;99.90;;;;;;5075038;28;20389;-80
2023/09/25 05:07:30;;;;;;;3.50;1.30;;;10.80;99.90;;;;;;5074383;28;20028;-80
2023/09/25 05:09:56;;;;;;;2.45;1.30;;;10.80;99.90;;;;;;5074803;28;20033;-80
2023/09/25 05:12:31;;;;;;;2.88;1.30;;;10.80;99.90;;;;;;5074940;28;20501;-81
2023/09/25 05:14:56;;;;;;;5.13;1.73;;;10.80;99.90;;;;;;5076009;28;20024;-81
2023/09/25 05:17:22;;;;;;;2.70;1.48;;;10.80;99.90;;;;;;5075812;28;20029;-80
2023/09/25 05:19:48;;;;;;;3.50;1.10;;;10.80;99.90;;;;;;5074598;28;20048;-80
2023/09/25 05:22:14;;;;;;;1.73;1.25;;;10.80;99.90;;;;;;5074474;28;20028;-80
2023/09/25 05:24:40;;;;;;;3.17;1.30;;;10.80;99.90;;;;;;5073951;28;20025;-80
2023/09/25 05:27:05;;;;;;;3.03;1.20;;;10.70;99.90;;;;;;5074579;28;20115;-80
2023/09/25 05:29:31;;;;;;;2.08;1.15;;;10.70;99.90;;;;;;5074044;28;20028;-80
2023/09/25 05:31:57;;;;;;;2.83;1.20;;;10.70;99.90;;;;;;5074059;28;20390;-80
2023/09/25 05:34:23;;;;;;;3.38;1.42;;;10.60;99.90;;;;;;5074296;28;20035;-80
2023/09/25 05:36:49;;;;;;;4.60;1.23;;;10.60;99.90;;;;;;5074817;28;20351;-81
2023/09/25 05:39:15;;;;;;;3.28;1.58;;;10.60;99.90;;;;;;5075106;28;20033;-80
2023/09/25 05:41:41;;;;;;;2.92;1.60;;;10.60;99.90;;;;;;5074842;28;20020;-80
2023/09/25 05:44:06;;;;;;;5.97;1.80;;;10.60;99.90;;;;;;5074094;28;20085;-80
2023/09/25 05:46:32;;;;;;;2.85;1.20;;;10.50;99.90;;;;;;5073593;28;20025;-80
2023/09/25 05:48:59;;;;;;;4.07;1.23;;;10.50;99.90;;;;;;5073832;28;20041;-80
2023/09/25 05:51:26;;;;;;;1.50;1.20;;;10.60;99.90;;;;;;5075066;28;20115;-80
2023/09/25 05:53:52;;;;;;;3.22;1.40;;;10.50;99.90;;;;;;5073841;28;20028;-80
2023/09/25 05:56:18;;;;;;;2.45;1.30;;;10.40;99.90;;;;;;5073869;28;20031;-80
2023/09/25 05:58:44;;;;;;;2.60;1.50;;;10.50;99.90;;;;;;5073248;28;20020;-80
2023/09/25 06:01:10;;;;;;;2.33;1.50;;;10.50;99.90;;;;;;5074825;28;20063;-80
2023/09/25 06:03:36;;;;;;;5.57;2.30;;;10.40;99.90;;;;;;5073158;28;20529;-80
2023/09/25 06:06:02;;;;;;;7.60;2.72;;;10.40;99.90;;;;;;5074312;28;20028;-80
2023/09/25 06:08:28;;;;;;;6.03;1.85;;;10.50;99.90;;;;;;5072943;28;20043;-81
2023/09/25 06:11:04;;;;;;;3.38;1.50;;;10.50;99.90;;;;;;5073490;28;20024;-80
2023/09/25 06:13:30;;;;;;;2.88;1.70;;;10.60;99.90;;;;;;5073947;28;20027;-80
2023/09/25 06:15:59;;;;;;;4.38;1.50;;;10.60;99.90;;;;;;5073374;28;20025;-80
2023/09/25 06:18:25;;;;;;;4.55;1.70;;;10.70;99.90;;;;;;5072872;28;20480;-80
2023/09/25 06:20:51;;;;;;;8.82;2.03;;;10.70;99.90;;;;;;5072788;28;20476;-80
2023/09/25 06:23:17;;;;;;;4.13;1.73;;;10.70;99.90;;;;;;5074109;28;20155;-80
2023/09/25 12:11:27;;;;;;;8.57;1.30;;;18.50;98.10;;;;;;4936971;22;1319553;-87
2023/09/25 12:13:54;;;;;;;7.78;1.20;;;18.60;98.20;;;;;;5067885;28;20029;-87
2023/09/25 12:16:20;;;;;;;11.65;1.42;;;18.80;98.00;;;;;;5068526;28;20024;-86
2023/09/25 12:18:46;;;;;;;6.70;2.65;;;19.00;97.80;;;;;;5074071;28;20075;-85
2023/09/25 12:21:11;;;;;;;4.28;1.35;;;19.10;97.30;;;;;;5065409;28;20489;-84
2023/09/25 12:23:37;;;;;;;1.58;0.88;;;19.30;96.40;;;;;;5075601;28;20024;-80
2023/09/25 12:26:03;;;;;;;1.67;1.00;;;19.40;96.50;;;;;;5064315;28;20457;-85
2023/09/25 12:28:29;;;;;;;2.00;1.10;;;19.60;96.40;;;;;;5081692;28;20029;-84
2023/09/25 12:30:56;;;;;;;3.47;1.10;;;19.80;96.40;;;;;;5072864;28;20025;-84
2023/09/25 12:33:22;;;;;;;2.15;1.08;;;20.10;96.50;;;;;;5064965;28;20043;-84
2023/09/25 12:35:47;;;;;;;2.97;0.98;;;20.20;96.50;;;;;;5065907;28;20120;-84
2023/09/25 12:38:13;;;;;;;2.70;1.02;;;20.40;95.30;;;;;;5072920;28;20050;-83
2023/09/25 12:40:39;;;;;;;1.95;0.90;;;20.60;95.00;;;;;;5070582;28;20453;-83
2023/09/25 12:43:04;;;;;;;1.58;0.90;;;20.80;95.00;;;;;;5082761;28;20020;-83
2023/09/25 12:45:30;;;;;;;1.75;0.70;;;21.00;94.80;;;;;;5073756;28;20077;-84
2023/09/25 12:47:56;;;;;;;11.02;1.00;;;21.30;94.30;;;;;;5074286;28;20024;-86
2023/09/25 12:50:21;;;;;;;3.28;1.00;;;21.50;94.00;;;;;;5065067;28;20457;-85
2023/09/25 12:52:47;;;;;;;1.90;1.02;;;21.80;93.10;;;;;;5076249;28;20047;-84
2023/09/25 12:55:13;;;;;;;4.43;1.00;;;22.20;92.30;;;;;;5076887;28;20029;-85
2023/09/25 12:57:38;;;;;;;4.90;0.93;;;22.60;91.50;;;;;;5072878;28;20023;-85
2023/09/25 13:00:05;;;;;;;2.65;0.75;;;23.30;91.80;;;;;;5072773;28;20445;-85
2023/09/25 13:02:31;;;;;;;125.47;8.23;;;24.10;90.30;;;;;;5072391;28;20111;-85
2023/09/25 13:04:56;;;;;;;22.08;2.42;;;24.80;87.50;;;;;;5072130;28;20443;-86
2023/09/25 13:07:22;;;;;;;17.92;2.15;;;25.30;85.50;;;;;;5070005;28;20527;-84
2023/09/25 13:09:49;;;;;;;9.68;1.58;;;25.80;85.10;;;;;;5082869;28;20043;-84
2023/09/25 13:12:15;;;;;;;9.43;1.23;;;26.30;83.20;;;;;;5068718;28;20076;-86
2023/09/25 13:14:40;;;;;;;5.22;0.90;;;26.80;82.00;;;;;;5070755;28;20114;-86
2023/09/25 13:17:06;;;;;;;3.53;1.23;;;27.20;78.00;;;;;;5061362;28;20024;-84
2023/09/25 13:19:31;;;;;;;3.38;0.95;;;27.50;77.50;;;;;;5065952;28;20028;-82
2023/09/25 13:21:57;;;;;;;2.75;1.20;;;27.90;76.70;;;;;;5073014;28;20111;-86
2023/09/25 13:24:23;;;;;;;6.50;1.38;;;28.20;74.20;;;;;;5069411;28;20042;-83
2023/09/25 13:26:49;;;;;;;2.92;1.10;;;28.50;73.40;;;;;;5066012;28;20020;-85
2023/09/25 13:29:14;;;;;;;4.00;0.93;;;28.80;73.20;;;;;;5073440;28;20020;-86
2023/09/25 13:31:40;;;;;;;3.92;1.00;;;29.10;70.80;;;;;;5071595;28;20088;-88
2023/09/25 13:34:05;;;;;;;2.13;1.00;;;29.20;68.60;;;;;;5073259;28;20029;-86
2023/09/25 13:36:32;;;;;;;2.80;1.13;;;29.30;68.20;;;;;;5071237;28;20111;-82
2023/09/25 13:38:57;;;;;;;3.90;1.08;;;29.30;67.70;;;;;;5070491;28;20021;-83
2023/09/25 13:41:23;;;;;;;4.63;1.13;;;29.20;68.30;;;;;;5079405;28;20083;-85
2023/09/25 13:43:49;;;;;;;2.40;0.90;;;29.10;67.00;;;;;;5071079;28;20035;-83
2023/09/25 13:46:14;;;;;;;3.47;0.80;;;29.00;67.50;;;;;;5079374;28;20025;-87
2023/09/25 13:48:40;;;;;;;3.63;1.23;;;28.70;67.50;;;;;;5082503;28;20028;-87
2023/09/25 13:51:06;;;;;;;1.83;0.82;;;28.40;67.60;;;;;;5063879;28;20032;-86
2023/09/25 13:53:34;;;;;;;1.35;1.00;;;28.30;67.60;;;;;;5070005;28;20047;-85
2023/09/25 13:55:59;;;;;;;2.17;1.02;;;28.00;67.60;;;;;;5070015;28;20453;-88
2023/09/25 13:58:25;;;;;;;2.95;0.90;;;27.80;67.80;;;;;;5064097;28;20035;-89
2023/09/25 14:00:51;;;;;;;1.63;0.95;;;27.50;68.70;;;;;;5062361;28;20024;-89
2023/09/25 14:03:16;;;;;;;1.65;0.93;;;27.00;69.50;;;;;;5072018;28;20035;-86
2023/09/25 14:05:42;;;;;;;1.20;0.88;;;26.80;70.60;;;;;;5073328;28;20105;-86
2023/09/25 14:08:08;;;;;;;4.78;0.82;;;26.50;70.10;;;;;;5061349;28;20036;-89
2023/09/25 14:10:38;;;;;;;1.17;0.93;;;26.10;71.20;;;;;;5071255;28;20035;-88
2023/09/25 14:13:07;;;;;;;1.00;0.80;;;25.80;72.30;;;;;;5069977;28;20040;-88
2023/09/25 14:15:33;;;;;;;6.80;0.98;;;25.50;72.50;;;;;;5060261;28;20033;-88
2023/09/25 14:17:59;;;;;;;2.22;0.90;;;25.30;72.80;;;;;;5071632;28;20025;-83
2023/09/25 14:20:25;;;;;;;2.83;0.98;;;25.10;73.80;;;;;;5070853;28;20074;-86
2023/09/25 14:22:50;;;;;;;3.63;0.95;;;24.90;73.40;;;;;;5072515;28;20040;-88
2023/09/25 14:25:16;;;;;;;2.38;0.80;;;24.70;72.90;;;;;;5077659;28;20020;-89
2023/09/25 14:27:42;;;;;;;3.58;0.90;;;24.50;74.90;;;;;;5080208;28;20388;-88
2023/09/25 14:30:10;;;;;;;2.55;0.80;;;24.30;75.10;;;;;;5066100;28;20021;-89
2023/09/25 14:32:35;;;;;;;3.80;1.10;;;24.10;74.70;;;;;;5077769;28;20492;-85
2023/09/25 14:35:01;;;;;;;1.95;0.88;;;24.00;74.90;;;;;;5066717;28;20032;-85
2023/09/25 14:37:26;;;;;;;2.60;0.85;;;23.80;75.30;;;;;;5071786;28;20031;-86
2023/09/25 14:39:53;;;;;;;1.83;0.77;;;23.60;76.30;;;;;;5070506;28;20036;-85
2023/09/25 14:42:18;;;;;;;2.33;0.90;;;23.50;76.90;;;;;;5071545;28;20032;-83
2023/09/25 14:44:44;;;;;;;4.05;1.10;;;23.40;77.00;;;;;;5071474;28;20032;-85
2023/09/25 14:47:10;;;;;;;3.53;0.80;;;23.20;77.70;;;;;;5054754;28;20435;-84
2023/09/25 14:49:35;;;;;;;1.63;1.00;;;23.00;77.80;;;;;;5066746;28;20025;-85
2023/09/25 14:52:01;;;;;;;2.47;1.00;;;23.00;79.00;;;;;;5067125;28;20028;-84
2023/09/25 14:54:26;;;;;;;2.00;0.88;;;22.90;79.10;;;;;;5066254;28;20116;-84
2023/09/25 14:56:52;;;;;;;1.98;1.00;;;22.80;78.40;;;;;;5068376;28;20495;-87
2023/09/25 14:59:17;;;;;;;2.30;1.00;;;22.70;78.00;;;;;;5069700;28;20059;-87
2023/09/25 15:01:43;;;;;;;1.83;0.95;;;22.60;78.30;;;;;;5065403;28;20460;-86
2023/09/25 15:04:09;;;;;;;1.80;0.88;;;22.50;78.90;;;;;;5072150;28;20056;-85
2023/09/25 15:06:34;;;;;;;2.70;1.17;;;22.40;78.80;;;;;;5069632;28;20043;-90
2023/09/25 15:09:00;;;;;;;1.75;0.93;;;22.40;80.00;;;;;;5065150;28;20070;-91
2023/09/25 15:11:25;;;;;;;2.22;1.10;;;22.30;79.80;;;;;;5069709;28;20045;-92
2023/09/25 15:13:51;;;;;;;2.97;0.90;;;22.20;80.50;;;;;;5069682;28;20074;-90
2023/09/25 15:16:17;;;;;;;1.38;0.80;;;22.20;81.60;;;;;;5061292;28;20024;-89
2023/09/25 15:18:43;;;;;;;2.17;0.90;;;22.10;80.70;;;;;;5071347;28;20032;-89
2023/09/25 15:21:09;;;;;;;1.67;0.98;;;22.10;80.90;;;;;;5060544;28;20040;-90
2023/09/25 15:23:36;;;;;;;2.30;1.05;;;22.00;81.70;;;;;;5069954;28;20025;-89
2023/09/25 15:26:03;;;;;;;3.67;1.00;;;22.00;81.80;;;;;;5061982;28;20032;-87
2023/09/25 15:28:29;;;;;;;2.38;0.98;;;21.90;82.30;;;;;;5071148;28;20481;-88
2023/09/25 15:30:55;;;;;;;1.08;0.82;;;21.90;81.10;;;;;;5069144;28;20075;-84
2023/09/25 15:33:20;;;;;;;2.47;1.10;;;21.80;80.70;;;;;;5061440;28;20477;-87
2023/09/25 15:35:48;;;;;;;2.13;0.88;;;21.80;80.60;;;;;;5073091;28;20028;-89
2023/09/25 15:38:14;;;;;;;1.63;0.98;;;21.80;80.60;;;;;;5070701;28;20333;-88
2023/09/25 15:40:39;;;;;;;2.72;0.82;;;21.80;81.20;;;;;;5071695;28;20029;-91
2023/09/25 15:43:05;;;;;;;1.80;1.10;;;21.80;81.10;;;;;;5071524;28;20047;-90
2023/09/25 15:45:33;;;;;;;2.72;1.13;;;21.60;82.00;;;;;;5061946;28;20423;-89
2023/09/25 15:47:59;;;;;;;2.47;1.10;;;21.50;83.70;;;;;;5071555;28;20027;-87
2023/09/25 15:50:27;;;;;;;2.22;1.33;;;21.50;83.40;;;;;;5074437;28;20107;-87
2023/09/25 15:52:53;;;;;;;1.60;1.00;;;21.40;83.40;;;;;;5074864;28;20059;-86
2023/09/25 15:55:19;;;;;;;3.25;1.00;;;21.30;83.70;;;;;;5072989;28;20044;-86
2023/09/25 15:57:44;;;;;;;2.50;1.00;;;21.30;83.80;;;;;;5075206;28;20104;-87
2023/09/25 16:00:11;;;;;;;2.17;1.08;;;21.20;83.90;;;;;;5074826;28;20028;-85
2023/09/25 16:02:36;;;;;;;1.50;0.90;;;21.20;83.90;;;;;;5075909;28;20056;-85
2023/09/25 16:05:02;;;;;;;8.25;1.30;;;21.20;84.40;;;;;;5067858;28;20460;-85
2023/09/25 16:07:28;;;;;;;1.77;0.88;;;21.30;84.70;;;;;;5074518;28;20066;-85
2023/09/25 16:09:54;;;;;;;2.92;0.90;;;21.20;84.80;;;;;;5068321;28;20025;-86
2023/09/25 16:12:20;;;;;;;2.10;1.10;;;21.20;85.10;;;;;;5068771;28;20449;-80
2023/09/25 16:14:45;;;;;;;3.95;0.90;;;21.20;85.20;;;;;;5071760;28;20056;-86
2023/09/25 16:17:11;;;;;;;1.27;0.93;;;21.20;85.20;;;;;;5069006;28;20490;-84
2023/09/25 16:19:37;;;;;;;2.97;0.80;;;21.20;85.50;;;;;;5069166;28;20036;-88
2023/09/25 16:22:03;;;;;;;2.70;1.02;;;21.10;86.00;;;;;;5064976;28;20082;-83
2023/09/25 16:24:28;;;;;;;2.15;0.90;;;21.10;86.70;;;;;;5073734;28;20028;-84
2023/09/25 16:26:54;;;;;;;2.58;0.88;;;21.00;87.10;;;;;;5072464;28;20044;-92
2023/09/25 16:29:20;;;;;;;2.58;0.95;;;20.90;88.50;;;;;;5072837;28;20469;-88
2023/09/25 16:31:45;;;;;;;3.40;1.20;;;20.80;88.60;;;;;;5062493;28;20056;-84
2023/09/25 16:34:11;;;;;;;1.77;0.80;;;20.80;89.10;;;;;;5060256;28;20028;-85
2023/09/25 16:36:37;;;;;;;1.38;0.82;;;20.70;89.60;;;;;;5077961;28;20141;-84
2023/09/25 16:39:04;;;;;;;4.65;1.10;;;20.70;89.90;;;;;;5062959;28;20495;-79
2023/09/25 16:41:29;;;;;;;1.90;1.10;;;20.70;90.00;;;;;;5073278;28;20512;-82
2023/09/25 16:43:55;;;;;;;1.48;0.93;;;20.60;90.30;;;;;;5072522;28;20028;-83
2023/09/25 16:46:20;;;;;;;1.98;0.90;;;20.50;90.40;;;;;;5061700;28;20033;-84
2023/09/25 16:48:46;;;;;;;2.60;0.90;;;20.40;90.70;;;;;;5074259;28;20028;-85
2023/09/25 16:51:11;;;;;;;1.48;0.98;;;20.40;90.90;;;;;;5077227;28;20024;-86
2023/09/25 16:53:38;;;;;;;2.90;1.30;;;20.40;91.10;;;;;;5074910;28;20052;-90
2023/09/25 16:56:03;;;;;;;1.63;0.73;;;20.30;91.10;;;;;;5075679;28;20024;-84
2023/09/25 16:58:29;;;;;;;1.65;0.70;;;20.30;91.30;;;;;;5075922;28;20074;-87
2023/09/25 17:00:55;;;;;;;3.83;1.08;;;20.20;91.30;;;;;;5076156;28;20021;-83
2023/09/25 17:03:20;;;;;;;1.95;1.10;;;20.20;91.70;;;;;;5073783;28;20037;-85
2023/09/25 17:05:46;;;;;;;2.15;1.17;;;20.20;91.50;;;;;;5075182;28;20392;-83
2023/09/25 17:08:12;;;;;;;4.13;1.05;;;20.10;91.60;;;;;;5067959;28;20036;-82
2023/09/25 17:10:38;;;;;;;1.77;1.05;;;20.00;92.00;;;;;;5064433;28;20529;-85
2023/09/25 17:13:08;;;;;;;2.75;0.98;;;20.00;91.50;;;;;;5086138;28;20044;-84
2023/09/25 17:15:39;;;;;;;2.28;1.20;;;19.90;91.30;;;;;;5057157;28;20029;-85
2023/09/25 17:18:06;;;;;;;3.80;1.35;;;19.90;91.50;;;;;;5063561;28;20063;-84
2023/09/25 17:20:32;;;;;;;4.32;1.27;;;19.90;91.80;;;;;;5075201;28;20058;-85
2023/09/25 17:22:57;;;;;;;2.45;1.00;;;19.90;91.90;;;;;;5074117;28;20480;-83
2023/09/25 17:25:23;;;;;;;2.33;1.10;;;19.80;92.20;;;;;;5073577;28;20036;-83
2023/09/25 17:27:51;;;;;;;2.00;1.08;;;19.80;92.40;;;;;;5068981;28;20044;-85
2023/09/25 17:30:20;;;;;;;2.72;1.23;;;19.70;92.50;;;;;;5070743;28;20031;-85
2023/09/25 17:32:46;;;;;;;1.83;1.20;;;19.60;92.70;;;;;;5068586;28;20040;-88
2023/09/25 17:35:12;;;;;;;3.03;1.15;;;19.60;92.80;;;;;;5070683;28;20029;-90
2023/09/25 17:37:38;;;;;;;3.33;1.13;;;19.60;92.70;;;;;;5070592;28;20078;-90
2023/09/25 17:40:05;;;;;;;1.60;1.15;;;19.60;93.00;;;;;;5071543;28;20021;-91
2023/09/25 17:42:31;;;;;;;2.05;1.00;;;19.50;93.20;;;;;;5077428;28;20064;-92
2023/09/25 17:44:57;;;;;;;1.73;1.23;;;19.40;93.40;;;;;;5072372;28;20028;-82
2023/09/25 17:47:24;;;;;;;2.40;1.30;;;19.40;93.50;;;;;;5073009;28;20488;-86
2023/09/25 17:49:49;;;;;;;4.18;1.63;;;19.40;93.30;;;;;;5073763;28;20074;-86
2023/09/25 17:52:15;;;;;;;2.97;1.60;;;19.30;93.50;;;;;;5072595;28;20025;-88
2023/09/25 17:54:40;;;;;;;3.38;1.17;;;19.30;93.60;;;;;;5067956;28;20032;-91
2023/09/25 17:57:07;;;;;;;3.70;1.75;;;19.20;93.80;;;;;;5073509;28;20104;-90
2023/09/25 17:59:32;;;;;;;2.63;1.30;;;19.20;94.00;;;;;;5072873;28;20120;-88
2023/09/25 18:01:58;;;;;;;2.60;1.40;;;19.10;94.20;;;;;;5082904;28;20044;-89
2023/09/25 18:04:24;;;;;;;2.67;1.40;;;19.00;94.40;;;;;;5060448;28;20495;-90
2023/09/25 18:06:49;;;;;;;1.67;1.17;;;19.00;94.70;;;;;;5059061;28;20100;-92
2023/09/25 18:09:15;;;;;;;2.63;1.35;;;18.90;94.80;;;;;;5060275;28;20052;-87
2023/09/25 18:11:46;;;;;;;2.83;1.60;;;18.90;94.90;;;;;;5070338;28;20056;-85
2023/09/25 18:14:11;;;;;;;3.13;1.40;;;18.80;95.10;;;;;;5071280;28;20465;-89
2023/09/25 18:16:37;;;;;;;3.38;1.30;;;18.70;95.20;;;;;;5072725;28;20055;-88
2023/09/25 18:19:03;;;;;;;4.57;1.80;;;18.70;95.30;;;;;;5082579;28;20032;-85
2023/09/25 18:21:31;;;;;;;3.17;1.40;;;18.60;95.30;;;;;;5092190;28;20012;-86
2023/09/25 18:23:57;;;;;;;2.30;1.20;;;18.60;95.40;;;;;;5085911;28;20036;-86
2023/09/25 18:26:22;;;;;;;2.70;1.30;;;18.60;95.50;;;;;;5081552;28;20028;-90
2023/09/25 18:28:48;;;;;;;2.53;1.30;;;18.50;95.90;;;;;;5093005;28;20107;-81